createdAt,value
2023-04-09T00:01:26.015Z,100426.89
2023-04-09T00:03:52.851Z,100419.21
2023-04-09T00:06:19.668Z,100417.23
2023-04-09T00:08:46.662Z,100410.52
2023-04-09T00:11:13.656Z,100405.93
2023-04-09T00:13:40.746Z,100410.96
2023-04-09T00:16:08.018Z,100408.08
2023-04-09T00:18:35.044Z,100406.25
2023-04-09T00:21:02.200Z,100403.49
2023-04-09T00:23:29.040Z,100406.14
2023-04-09T00:25:56.026Z,100405.55
2023-04-09T00:28:22.998Z,100406.02
2023-04-09T00:30:50.328Z,100401.02
2023-04-09T00:33:17.303Z,100402.58
2023-04-09T00:35:44.598Z,100397.80
2023-04-09T00:38:11.238Z,100400.81
2023-04-09T00:40:41.059Z,100396.64
2023-04-09T00:43:08.143Z,100398.63
2023-04-09T00:45:37.867Z,100398.09
2023-04-09T00:48:05.145Z,100395.48
2023-04-09T00:50:32.048Z,100393.63
2023-04-09T00:52:59.002Z,100389.17
2023-04-09T00:55:26.711Z,100391.23
2023-04-09T00:57:53.712Z,100388.97
2023-04-09T01:00:21.000Z,100383.27
2023-04-09T01:02:48.693Z,100383.68
2023-04-09T01:05:15.633Z,100385.54
2023-04-09T01:08:10.968Z,100385.00
2023-04-09T06:17:59.402Z,100115.33
2023-04-09T06:21:26.589Z,100118.70
2023-04-09T06:25:02.726Z,100120.85
2023-04-09T06:28:33.382Z,100128.64
2023-04-09T06:31:49.254Z,100131.56
2023-04-09T06:34:40.200Z,100138.56
2023-04-09T06:37:29.785Z,100141.54
2023-04-09T06:40:01.347Z,100147.02
2023-04-09T06:42:29.243Z,100148.03
2023-04-09T06:45:09.153Z,100152.05
2023-04-09T06:47:36.786Z,100154.35
2023-04-09T06:50:04.745Z,100163.92
2023-04-09T06:52:34.255Z,100169.33
2023-04-09T06:55:01.143Z,100174.80
2023-04-09T06:57:27.967Z,100179.46
2023-04-09T06:59:55.200Z,100179.99
2023-04-09T07:02:22.515Z,100177.94
2023-04-09T07:04:49.967Z,100181.85
2023-04-09T07:07:17.356Z,100188.20
2023-04-09T07:09:44.321Z,100190.79
2023-04-09T07:12:11.414Z,100192.77
2023-04-09T07:14:40.755Z,100199.07
2023-04-09T07:24:27.486Z,100208.88
2023-04-09T07:27:52.674Z,100214.79
2023-04-09T07:31:19.867Z,100221.09
2023-04-09T07:34:52.232Z,100230.39
2023-04-09T07:37:19.749Z,100231.06
2023-04-09T07:39:47.182Z,100236.29
2023-04-09T07:42:14.014Z,100243.59
2023-04-09T07:44:43.513Z,100250.60
2023-04-09T07:47:12.222Z,100254.88
2023-04-09T07:49:39.310Z,100257.69
2023-04-09T07:52:06.241Z,100263.00
2023-04-09T07:54:34.241Z,100263.01
2023-04-09T07:57:01.497Z,100259.23
2023-04-09T07:59:29.107Z,100262.93
2023-04-09T08:01:56.487Z,100256.02
2023-04-09T08:04:32.515Z,100253.25
2023-04-09T08:07:00.194Z,100251.80
2023-04-09T08:10:07.406Z,100256.89
2023-04-09T08:13:01.613Z,100268.13
2023-04-09T08:15:48.510Z,100272.46
2023-04-09T08:18:15.537Z,100278.45
2023-04-09T08:20:44.772Z,100269.40
2023-04-09T08:23:12.265Z,100282.05
2023-04-09T08:25:40.431Z,100297.48
2023-04-09T08:28:08.082Z,100300.48
2023-04-09T08:30:38.758Z,100314.14
2023-04-09T08:33:10.336Z,100304.81
2023-04-09T08:35:39.854Z,100309.52
2023-04-09T08:38:07.078Z,100316.65
2023-04-09T08:40:37.401Z,100325.30
2023-04-09T08:43:06.326Z,100316.09
2023-04-09T08:45:33.540Z,100301.66
2023-04-09T08:48:03.392Z,100302.40
2023-04-09T08:50:33.566Z,100312.75
2023-04-09T08:53:05.183Z,100323.29
2023-04-09T08:55:34.035Z,100320.10
2023-04-09T08:58:05.054Z,100319.34
2023-04-09T09:00:32.018Z,100318.67
2023-04-09T09:03:08.933Z,100321.44
2023-04-09T09:05:41.917Z,100329.39
2023-04-09T09:08:13.691Z,100333.04
2023-04-09T09:10:44.824Z,100339.14
2023-04-09T09:13:27.797Z,100337.77
2023-04-09T09:16:13.244Z,100347.16
2023-04-09T09:18:54.617Z,100344.20
2023-04-09T09:21:22.342Z,100350.39
2023-04-09T09:23:50.823Z,100343.80
2023-04-09T09:26:21.248Z,100336.80
2023-04-09T09:28:49.689Z,100346.98
2023-04-09T09:31:18.687Z,100367.34
2023-04-09T09:33:49.851Z,100362.02
2023-04-09T09:36:34.685Z,100363.68
2023-04-09T09:39:12.438Z,100375.11
2023-04-09T09:41:41.382Z,100369.36
2023-04-09T09:44:10.145Z,100369.11
2023-04-09T09:46:38.884Z,100367.65
2023-04-09T09:49:06.513Z,100376.18
2023-04-09T09:51:36.812Z,100387.09
2023-04-09T09:54:07.804Z,100389.30
2023-04-09T09:56:37.796Z,100395.45
2023-04-09T09:59:21.470Z,100393.65
2023-04-09T10:01:56.756Z,100382.71
2023-04-09T10:04:29.383Z,100387.74
2023-04-09T10:07:03.713Z,100380.86
2023-04-09T10:09:32.430Z,100377.87
2023-04-09T10:12:04.519Z,100379.86
2023-04-09T10:14:31.546Z,100380.65
2023-04-09T10:16:58.822Z,100378.09
2023-04-09T10:19:26.527Z,100371.59
2023-04-09T10:22:05.095Z,100374.34
2023-04-09T10:24:34.230Z,100374.40
2023-04-09T10:27:14.210Z,100378.20
2023-04-09T10:29:47.524Z,100372.10
2023-04-09T10:32:20.999Z,100370.20
2023-04-09T10:34:48.573Z,100369.80
2023-04-09T10:37:26.503Z,100372.89
2023-04-09T10:39:53.492Z,100374.67
2023-04-09T10:42:26.577Z,100358.33
2023-04-09T10:45:13.401Z,100358.58
2023-04-09T10:47:42.426Z,100361.09
2023-04-09T10:50:35.928Z,100354.45
2023-04-09T10:53:04.199Z,100359.02
2023-04-09T10:55:41.266Z,100365.91
2023-04-09T10:58:12.642Z,100371.42
2023-04-09T11:00:51.147Z,100361.73
2023-04-09T11:03:29.881Z,100367.14
2023-04-09T11:06:08.729Z,100357.95
2023-04-09T11:08:37.907Z,100358.82
2023-04-09T11:11:05.393Z,100356.84
2023-04-09T11:13:33.767Z,100361.67
2023-04-09T11:16:03.599Z,100360.42
2023-04-09T11:18:39.901Z,100355.13
2023-04-09T11:21:09.914Z,100364.23
2023-04-09T11:23:37.004Z,100363.10
2023-04-09T11:26:11.713Z,100356.11
2023-04-09T11:28:43.171Z,100360.52
2023-04-09T11:31:13.338Z,100363.84
2023-04-09T11:33:45.822Z,100366.54
2023-04-09T11:36:12.846Z,100378.02
2023-04-09T11:38:39.758Z,100391.04
2023-04-09T11:41:12.111Z,100392.28
2023-04-09T11:43:39.101Z,100393.32
2023-04-09T11:46:07.459Z,100392.05
2023-04-09T11:48:35.234Z,100390.88
2023-04-09T11:51:14.577Z,100394.16
2023-04-09T11:53:42.295Z,100397.23
2023-04-09T11:56:10.102Z,100399.34
2023-04-09T11:58:37.357Z,100402.39
2023-04-09T12:01:05.773Z,100403.10
2023-04-09T12:03:34.211Z,100393.85
2023-04-09T12:06:03.122Z,100392.90
2023-04-09T12:08:34.409Z,100392.67
2023-04-09T12:11:16.818Z,100392.09
2023-04-09T12:13:50.027Z,100390.52
2023-04-09T12:16:21.639Z,100388.63
2023-04-09T12:18:50.213Z,100387.73
2023-04-09T12:21:19.803Z,100386.69
2023-04-09T12:23:46.775Z,100392.27
2023-04-09T12:26:14.083Z,100394.23
2023-04-09T12:28:41.083Z,100395.67
2023-04-09T12:31:14.047Z,100390.61
2023-04-09T12:33:40.704Z,100387.55
2023-04-09T12:36:08.016Z,100385.02
2023-04-09T12:38:35.134Z,100381.36
2023-04-09T12:41:02.306Z,100388.23
2023-04-09T12:43:29.486Z,100390.09
2023-04-09T12:45:59.675Z,100393.73
2023-04-09T12:48:33.068Z,100394.35
2023-04-09T12:51:00.612Z,100387.82
2023-04-09T12:53:27.587Z,100389.39
2023-04-09T12:55:54.664Z,100393.35
2023-04-09T12:58:21.547Z,100391.56
2023-04-09T13:00:52.397Z,100387.77
2023-04-09T13:03:19.303Z,100382.52
2023-04-09T13:05:49.017Z,100386.27
2023-04-09T13:08:16.073Z,100393.29
2023-04-09T13:27:04.575Z,100410.61
2023-04-09T13:29:36.450Z,100409.50
2023-04-09T13:32:07.856Z,100417.09
2023-04-09T13:34:44.982Z,100426.29
2023-04-09T13:37:19.890Z,100421.91
2023-04-09T13:39:48.543Z,100427.36
2023-04-09T13:42:17.723Z,100438.96
2023-04-09T13:45:06.618Z,100452.16
2023-04-09T13:47:35.935Z,100459.01
2023-04-09T13:50:04.867Z,100457.52
2023-04-09T13:52:33.369Z,100453.80
2023-04-09T13:55:06.530Z,100447.59
2023-04-09T13:57:37.356Z,100436.33
2023-04-09T14:00:10.958Z,100438.06
2023-04-09T14:02:42.159Z,100425.13
2023-04-09T14:05:10.730Z,100411.40
2023-04-09T14:14:49.124Z,100358.16
2023-04-09T14:17:17.638Z,100334.70
2023-04-09T14:19:46.232Z,100322.60
2023-04-09T14:22:17.044Z,100310.33
2023-04-09T14:24:47.658Z,100296.91
2023-04-09T14:27:18.488Z,100283.75
2023-04-09T14:29:46.464Z,100268.89
2023-04-09T14:32:14.460Z,100257.45
2023-04-09T14:34:43.142Z,100249.22
2023-04-09T14:37:11.378Z,100242.61
2023-04-09T14:39:39.430Z,100235.32
2023-04-09T14:42:12.761Z,100227.77
2023-04-09T14:44:43.279Z,100224.96
2023-04-09T14:47:11.617Z,100213.29
2023-04-09T14:49:39.790Z,100210.74
2023-04-09T14:52:10.850Z,100201.75
2023-04-09T14:54:39.315Z,100199.50
2023-04-09T15:49:00.562Z,100200.43
2023-04-09T15:51:49.178Z,100195.21
2023-04-09T15:55:08.147Z,100185.60
2023-04-09T15:58:51.578Z,100183.01
2023-04-09T16:02:33.533Z,100181.02
2023-04-09T16:05:35.263Z,100175.92
2023-04-09T16:08:04.226Z,100167.55
2023-04-09T16:10:38.054Z,100167.70
2023-04-09T16:13:06.481Z,100165.40
2023-04-09T16:15:37.500Z,100165.90
2023-04-09T16:18:08.450Z,100167.66
2023-04-09T16:20:36.929Z,100174.41
2023-04-09T16:23:06.545Z,100172.20
2023-04-09T16:25:35.789Z,100176.52
2023-04-09T16:28:03.933Z,100179.79
2023-04-09T16:30:32.332Z,100180.98
2023-04-09T16:33:03.192Z,100180.40
2023-04-09T16:35:34.213Z,100177.85
2023-04-09T16:38:02.602Z,100179.67
2023-04-09T16:40:31.274Z,100182.45
2023-04-09T16:43:06.254Z,100180.74
2023-04-09T16:45:35.067Z,100180.08
2023-04-09T16:48:06.432Z,100178.17
2023-04-09T16:50:35.076Z,100176.99
2023-04-09T16:53:44.424Z,100175.55
2023-04-09T16:56:17.710Z,100180.47
2023-04-09T16:58:47.343Z,100177.23
2023-04-09T17:01:36.072Z,100173.42
2023-04-09T17:04:06.013Z,100170.34
2023-04-09T17:06:34.906Z,100167.00
2023-04-09T17:09:05.420Z,100163.52
2023-04-09T17:11:33.658Z,100161.98
2023-04-09T17:14:02.119Z,100161.70
2023-04-09T17:16:30.706Z,100163.17
2023-04-09T17:18:59.602Z,100164.30
2023-04-09T17:21:30.922Z,100165.08
2023-04-09T17:24:03.093Z,100165.81
2023-04-09T17:26:37.709Z,100168.45
2023-04-09T17:29:26.548Z,100161.13
2023-04-09T17:31:55.367Z,100158.59
2023-04-09T17:34:25.839Z,100157.36
2023-04-09T17:37:00.112Z,100161.17
2023-04-09T17:39:29.550Z,100159.95
2023-04-09T17:41:59.958Z,100163.71
2023-04-09T17:44:28.395Z,100166.58
2023-04-09T17:46:57.827Z,100170.77
2023-04-09T17:49:33.495Z,100169.66
2023-04-09T17:52:01.915Z,100173.58
2023-04-09T17:54:34.702Z,100170.84
2023-04-09T17:57:07.278Z,100172.33
2023-04-09T17:59:36.511Z,100173.46
2023-04-09T18:02:05.412Z,100172.39
2023-04-09T18:04:37.569Z,100173.46
2023-04-09T18:07:11.667Z,100173.48
2023-04-09T18:09:40.698Z,100172.33
2023-04-09T18:12:09.584Z,100170.86
2023-04-09T18:14:40.736Z,100171.23
2023-04-09T18:17:08.970Z,100177.54
2023-04-09T18:19:37.841Z,100180.52
2023-04-09T18:22:06.769Z,100183.08
2023-04-09T18:24:39.112Z,100184.64
2023-04-09T18:27:11.626Z,100185.98
2023-04-09T18:29:40.721Z,100189.66
2023-04-09T18:32:09.599Z,100187.70
2023-04-09T18:34:41.356Z,100186.40
2023-04-09T18:37:12.212Z,100193.76
2023-04-09T18:39:41.013Z,100193.67
2023-04-09T18:42:11.510Z,100194.08
2023-04-09T18:44:42.650Z,100194.30
2023-04-09T18:47:11.935Z,100191.80
2023-04-09T18:49:40.455Z,100183.84
2023-04-09T18:52:10.302Z,100183.70
2023-04-09T18:54:38.992Z,100183.35
2023-04-09T18:57:07.655Z,100179.49
2023-04-09T18:59:36.231Z,100177.19
2023-04-09T19:02:05.448Z,100171.30
2023-04-09T19:04:36.455Z,100172.23
2023-04-09T19:07:05.776Z,100171.27
2023-04-09T19:09:34.539Z,100168.64
2023-04-09T19:12:03.997Z,100170.00
2023-04-09T19:14:32.159Z,100168.27
2023-04-09T19:17:05.395Z,100169.15
2023-04-09T19:19:37.434Z,100169.89
2023-04-09T19:22:40.510Z,100170.11
2023-04-09T19:25:09.993Z,100169.27
2023-04-09T19:27:40.759Z,100162.42
2023-04-09T19:30:09.775Z,100165.48
2023-04-09T19:32:41.850Z,100164.12
2023-04-09T19:35:12.898Z,100167.54
2023-04-09T19:37:41.102Z,100163.98
2023-04-09T19:40:16.975Z,100163.85
2023-04-09T19:42:48.341Z,100164.92
2023-04-09T19:45:16.921Z,100159.04
2023-04-09T19:47:55.697Z,100156.73
2023-04-09T19:50:26.314Z,100156.78
2023-04-09T19:53:04.578Z,100160.22
2023-04-09T19:55:35.819Z,100157.90
2023-04-09T19:58:05.651Z,100158.42
2023-04-09T20:00:34.920Z,100161.06
2023-04-09T20:03:04.171Z,100156.59
2023-04-09T20:05:32.862Z,100156.64
2023-04-09T20:08:01.123Z,100158.35
2023-04-09T20:10:29.562Z,100156.68
2023-04-09T20:12:58.012Z,100157.35
2023-04-09T20:15:28.729Z,100152.22
2023-04-09T20:17:59.561Z,100151.20
2023-04-09T20:20:27.677Z,100149.70
2023-04-09T20:22:56.851Z,100151.17
2023-04-09T20:25:25.571Z,100151.98
2023-04-09T20:27:54.354Z,100145.21
2023-04-09T20:30:22.737Z,100136.97
2023-04-09T20:32:50.953Z,100133.83
2023-04-09T20:35:19.445Z,100126.77
2023-04-09T20:37:55.405Z,100123.27
2023-04-09T20:40:30.904Z,100124.06
2023-04-09T20:43:03.123Z,100120.67
2023-04-09T20:45:33.669Z,100117.91
2023-04-09T20:48:03.282Z,100116.30
2023-04-09T20:50:31.649Z,100111.75
2023-04-09T20:52:59.855Z,100113.80
2023-04-09T20:55:27.925Z,100109.41
2023-04-09T20:57:56.133Z,100108.50
2023-04-09T21:00:24.652Z,100111.00
2023-04-09T21:02:52.925Z,100110.59
2023-04-09T21:05:24.011Z,100112.36
2023-04-09T21:07:53.245Z,100111.90
2023-04-09T21:10:21.777Z,100110.05
2023-04-09T21:12:53.909Z,100107.38
2023-04-09T21:15:21.886Z,100109.64
2023-04-09T21:17:50.419Z,100108.13
2023-04-09T21:20:23.061Z,100108.15
2023-04-09T21:22:52.549Z,100111.36
2023-04-09T21:25:23.754Z,100110.91
2023-04-09T21:27:52.007Z,100109.38
2023-04-09T21:30:20.421Z,100106.08
2023-04-09T21:32:48.518Z,100106.10
2023-04-09T21:35:18.976Z,100103.35
2023-04-09T21:37:47.034Z,100098.67
2023-04-09T21:40:16.077Z,100089.46
2023-04-09T21:42:46.060Z,100087.81
2023-04-09T21:45:14.163Z,100082.73
2023-04-09T21:47:47.392Z,100077.41
2023-04-09T21:50:17.823Z,100076.59
2023-04-09T21:52:47.427Z,100077.55
2023-04-09T21:55:15.842Z,100070.52
2023-04-09T21:57:44.342Z,100065.21
2023-04-09T22:00:16.224Z,100065.38
2023-04-09T22:02:44.957Z,100060.21
2023-04-09T22:05:13.583Z,100059.17
2023-04-09T22:07:42.662Z,100060.08
2023-04-09T22:10:11.622Z,100063.95
2023-04-09T22:12:41.276Z,100067.75
2023-04-09T22:15:11.170Z,100070.38
2023-04-09T22:17:40.279Z,100075.53
2023-04-09T22:20:11.384Z,100077.40
2023-04-09T22:22:40.173Z,100078.85
2023-04-09T22:25:09.192Z,100071.71
2023-04-09T22:27:37.985Z,100069.12
2023-04-09T22:30:07.300Z,100066.44
2023-04-09T22:32:35.954Z,100069.07
2023-04-09T22:35:04.627Z,100065.23
2023-04-09T22:37:32.893Z,100067.39
2023-04-09T22:40:01.348Z,100065.62
2023-04-09T22:42:29.670Z,100063.27
2023-04-09T22:44:58.152Z,100066.36
2023-04-09T22:47:26.632Z,100068.92
2023-04-09T22:49:55.044Z,100071.14
2023-04-09T22:52:23.587Z,100070.04
2023-04-09T22:54:51.808Z,100066.22
2023-04-09T22:57:19.908Z,100069.54
2023-04-09T22:59:47.975Z,100066.63
2023-04-09T23:02:16.418Z,100067.90
2023-04-09T23:04:45.265Z,100069.92
2023-04-09T23:07:13.683Z,100067.48
2023-04-09T23:09:41.971Z,100071.73
2023-04-09T23:12:10.503Z,100070.79
2023-04-09T23:14:38.960Z,100072.04
2023-04-09T23:17:07.420Z,100072.89
2023-04-09T23:19:35.962Z,100070.60
2023-04-09T23:22:05.122Z,100072.17
2023-04-09T23:24:33.634Z,100069.08
2023-04-09T23:27:02.495Z,100067.15
2023-04-09T23:29:32.352Z,100058.83
2023-04-09T23:32:01.064Z,100059.35
2023-04-09T23:34:29.342Z,100057.83
2023-04-09T23:36:57.743Z,100053.09
2023-04-09T23:39:26.182Z,100048.02
2023-04-09T23:41:54.405Z,100046.09
2023-04-09T23:44:22.663Z,100044.56
2023-04-09T23:46:51.337Z,100040.77
2023-04-09T23:49:20.583Z,100042.14
2023-04-09T23:51:51.105Z,100038.52
2023-04-09T23:54:19.643Z,100037.94
2023-04-09T23:56:48.033Z,100037.04
2023-04-09T23:59:16.434Z,100036.66
